Time;durP1;ratioP1;P1;durP2;ratioP2;P2;SDS_P1;SDS_P2;PMS_P1;PMS_P2;Temp;Humidity;BMP_temperature;BMP_pressure;BME280_temperature;BME280_humidity;BME280_pressure;Samples;Min_cycle;Max_cycle;Signal;HPM_P1;HPM_P2
2023/03/21 00:01:52;;;;;;;30.70;15.20;;;;;;;4.75;61.37;100390.55;105255;1254;62692;-51
2023/03/21 00:04:23;;;;;;;28.20;16.40;;;;;;;4.73;61.31;100386.52;105266;1254;65206;-50
2023/03/21 00:06:52;;;;;;;25.80;14.40;;;;;;;4.70;61.35;100383.56;105627;1251;61292;-51
2023/03/21 00:09:21;;;;;;;60.00;38.90;;;;;;;4.69;61.44;100379.48;106400;1251;61000;-51
2023/03/21 00:11:52;;;;;;;37.90;16.60;;;;;;;4.64;61.38;100371.21;105343;1254;66228;-51
2023/03/21 00:14:22;;;;;;;30.70;13.60;;;;;;;4.58;61.37;100369.23;105517;1254;62622;-51
2023/03/21 00:16:51;;;;;;;33.20;15.60;;;;;;;4.52;61.55;100368.86;105539;1251;65221;-52
2023/03/21 00:19:25;;;;;;;58.70;40.10;;;;;;;4.49;61.79;100368.20;105334;1251;60532;-52
2023/03/21 00:21:54;;;;;;;34.10;16.60;;;;;;;4.46;61.73;100365.41;106184;1253;60386;-52
2023/03/21 00:24:35;;;;;;;28.00;14.90;;;;;;;4.40;61.75;100366.75;105210;1253;66198;-52
2023/03/21 00:27:04;;;;;;;33.10;15.80;;;;;;;4.37;61.87;100366.58;106083;1252;62960;-52
2023/03/21 00:29:55;;;;;;;32.70;16.40;;;;;;;4.32;61.74;100368.41;105838;1251;63698;-51
2023/03/21 00:32:27;;;;;;;34.80;15.80;;;;;;;4.29;61.93;100364.08;105522;1251;60545;-51
2023/03/21 00:34:56;;;;;;;34.40;16.90;;;;;;;4.26;61.88;100360.73;105515;1250;60546;-51
2023/03/21 00:37:47;;;;;;;32.30;17.00;;;;;;;4.22;61.99;100362.88;105289;1251;66125;-52
2023/03/21 00:40:16;;;;;;;39.00;16.00;;;;;;;4.17;62.01;100361.76;105490;1251;62575;-51
2023/03/21 00:42:57;;;;;;;28.10;10.90;;;;;;;4.16;62.02;100362.16;105366;1255;63999;-53
2023/03/21 00:45:26;;;;;;;36.50;13.10;;;;;;;4.21;62.08;100358.75;105309;1251;61289;-53
2023/03/21 00:47:55;;;;;;;24.50;13.00;;;;;;;4.29;62.14;100360.98;105489;1253;60417;-51
2023/03/21 00:50:28;;;;;;;47.40;34.20;;;;;;;4.35;62.25;100359.76;105321;1251;65240;-51
2023/03/21 00:52:57;;;;;;;25.30;11.70;;;;;;;4.39;62.31;100363.69;105389;1251;63074;-51
2023/03/21 00:55:27;;;;;;;45.40;31.70;;;;;;;4.39;62.39;100357.25;105492;1251;64698;-51
2023/03/21 00:57:55;;;;;;;24.50;13.30;;;;;;;4.40;62.39;100358.93;105429;1251;60526;-51
2023/03/21 01:00:30;;;;;;;27.20;14.00;;;;;;;4.42;62.56;100357.64;105353;1251;60697;-51
2023/03/21 01:03:04;;;;;;;48.30;31.40;;;;;;;4.44;62.72;100356.65;105404;1253;67074;-51
2023/03/21 01:06:03;;;;;;;26.00;12.70;;;;;;;4.43;62.87;100354.10;105205;1251;61455;-51
2023/03/21 01:08:36;;;;;;;23.30;11.60;;;;;;;4.40;62.91;100347.30;107028;1251;65009;-51
2023/03/21 01:11:22;;;;;;;29.40;16.50;;;;;;;4.37;62.98;100347.31;105456;1249;60704;-52
2023/03/21 01:13:51;;;;;;;28.80;16.00;;;;;;;4.33;63.19;100345.66;105361;1255;60418;-52
2023/03/21 01:16:31;;;;;;;29.60;14.20;;;;;;;4.26;63.17;100344.27;106544;1251;64879;-52
2023/03/21 01:18:59;;;;;;;44.20;18.70;;;;;;;4.20;63.18;100345.81;105479;1251;62361;-52
2023/03/21 01:21:32;;;;;;;34.40;16.10;;;;;;;4.14;63.12;100342.28;105319;1250;64670;-50
2023/03/21 01:24:00;;;;;;;50.70;35.70;;;;;;;4.10;63.18;100338.89;105204;1256;60485;-51
2023/03/21 01:26:29;;;;;;;25.80;12.70;;;;;;;4.06;63.32;100338.36;105700;1250;60388;-52
2023/03/21 01:28:57;;;;;;;23.70;10.60;;;;;;;4.07;63.35;100334.84;105495;1251;65012;-51
2023/03/21 01:31:27;;;;;;;44.20;30.60;;;;;;;4.14;63.27;100331.37;106285;1251;60408;-50
2023/03/21 01:33:55;;;;;;;23.20;10.40;;;;;;;4.18;63.09;100329.42;105515;1250;63978;-50
2023/03/21 01:36:25;;;;;;;49.40;33.90;;;;;;;4.22;63.15;100326.75;105284;1251;60528;-50
2023/03/21 01:38:59;;;;;;;32.90;16.80;;;;;;;4.25;63.24;100324.84;105148;1251;60588;-50
2023/03/21 01:41:35;;;;;;;35.20;17.80;;;;;;;4.26;63.36;100326.34;105531;1251;66169;-52
2023/03/21 01:44:19;;;;;;;31.40;15.00;;;;;;;4.29;63.17;100323.27;105486;1251;62446;-51
2023/03/21 01:46:51;;;;;;;33.60;13.50;;;;;;;4.30;63.18;100321.84;105679;1251;66186;-51
2023/03/21 01:49:40;;;;;;;51.40;34.80;;;;;;;4.27;63.10;100321.42;105441;1251;60474;-51
2023/03/21 01:52:27;;;;;;;24.90;12.80;;;;;;;4.24;63.07;100314.31;106372;1253;60544;-51
2023/03/21 01:55:11;;;;;;;30.70;15.20;;;;;;;4.17;62.98;100309.52;105278;1257;68480;-51
2023/03/21 01:57:52;;;;;;;33.30;17.00;;;;;;;4.11;63.14;100310.35;105492;1250;62704;-51
2023/03/21 02:00:45;;;;;;;33.40;16.70;;;;;;;4.07;63.44;100314.19;105495;1254;64735;-52
2023/03/21 02:03:28;;;;;;;34.00;15.20;;;;;;;4.04;63.36;100310.23;105115;1251;60478;-52
2023/03/21 02:06:33;;;;;;;28.90;15.70;;;;;;;3.99;63.33;100307.69;105233;1251;60470;-52
2023/03/21 02:09:11;;;;;;;29.10;13.00;;;;;;;3.96;63.55;100303.88;105448;1252;66049;-52
2023/03/21 02:11:39;;;;;;;32.20;14.80;;;;;;;3.90;63.43;100302.59;106148;1251;62811;-50
2023/03/21 02:14:11;;;;;;;45.90;33.80;;;;;;;3.84;63.50;100303.63;105128;1259;63740;-51
2023/03/21 02:17:00;;;;;;;28.80;12.50;;;;;;;3.83;63.45;100297.59;105130;1258;60470;-51
2023/03/21 02:19:49;;;;;;;24.50;11.00;;;;;;;3.91;63.50;100299.08;105208;1257;60509;-50
2023/03/21 02:22:36;;;;;;;25.50;11.50;;;;;;;3.97;63.49;100296.17;105657;1251;74985;-51
2023/03/21 02:25:08;;;;;;;23.70;11.00;;;;;;;4.03;63.49;100298.80;105479;1251;62606;-51
2023/03/21 02:27:54;;;;;;;25.00;10.80;;;;;;;4.07;63.59;100294.39;105377;1251;65533;-51
2023/03/21 02:30:42;;;;;;;28.20;14.10;;;;;;;4.12;63.81;100288.96;105243;1250;60502;-50
2023/03/21 02:34:06;;;;;;;30.40;16.50;;;;;;;4.12;63.75;100290.01;105956;1254;60371;-50
2023/03/21 02:37:25;;;;;;;24.10;14.30;;;;;;;4.10;63.58;100294.44;105244;1253;66537;-51
2023/03/21 02:40:38;;;;;;;32.40;16.10;;;;;;;4.04;63.45;100292.50;105099;1250;62733;-50
2023/03/21 02:43:12;;;;;;;27.00;14.10;;;;;;;3.96;63.34;100289.80;104560;1262;65021;-51
2023/03/21 02:46:02;;;;;;;34.90;15.50;;;;;;;3.86;63.41;100292.21;105469;1251;60498;-52
2023/03/21 02:48:38;;;;;;;32.60;15.60;;;;;;;3.78;63.44;100291.81;105245;1256;60450;-51
2023/03/21 02:51:20;;;;;;;26.10;14.30;;;;;;;3.71;63.40;100284.52;105417;1250;65894;-50
2023/03/21 02:53:52;;;;;;;26.10;13.40;;;;;;;3.66;63.56;100284.45;105873;1256;61357;-51
2023/03/21 02:56:42;;;;;;;31.00;14.40;;;;;;;3.59;63.55;100278.23;106040;1252;65033;-51
2023/03/21 02:59:10;;;;;;;28.20;14.60;;;;;;;3.52;63.51;100278.39;105281;1252;60550;-51
2023/03/21 03:01:39;;;;;;;32.90;14.80;;;;;;;3.45;63.69;100279.98;106041;1254;61131;-50
2023/03/21 03:04:22;;;;;;;50.50;35.10;;;;;;;3.40;63.85;100284.23;105528;1254;64825;-50
2023/03/21 03:06:57;;;;;;;23.00;12.30;;;;;;;3.38;64.01;100285.39;105402;1250;62865;-50
2023/03/21 03:09:26;;;;;;;20.40;9.30;;;;;;;3.42;63.89;100281.21;105505;1251;64977;-50
2023/03/21 03:12:00;;;;;;;28.10;11.90;;;;;;;3.48;63.89;100281.73;105328;1251;60473;-50
2023/03/21 03:14:47;;;;;;;49.00;33.10;;;;;;;3.53;63.74;100282.68;105420;1251;60440;-51
2023/03/21 03:17:37;;;;;;;25.50;11.30;;;;;;;3.58;63.69;100284.38;105401;1251;64906;-49
2023/03/21 03:20:12;;;;;;;29.80;15.20;;;;;;;3.59;63.82;100288.95;105400;1257;62807;-52
2023/03/21 03:22:54;;;;;;;34.50;14.80;;;;;;;3.60;63.98;100291.88;105396;1250;64812;-50
2023/03/21 03:25:27;;;;;;;28.40;14.60;;;;;;;3.60;64.12;100291.38;105508;1254;60591;-51
2023/03/21 03:28:10;;;;;;;26.00;12.20;;;;;;;3.60;64.04;100293.80;105608;1250;60906;-51
2023/03/21 03:30:39;;;;;;;31.00;15.70;;;;;;;3.58;63.94;100291.11;105390;1256;65570;-51
2023/03/21 03:33:24;;;;;;;31.00;15.40;;;;;;;3.52;63.88;100291.05;105236;1251;63002;-50
2023/03/21 03:35:53;;;;;;;25.80;13.20;;;;;;;3.47;63.92;100291.83;105276;1251;63773;-50
2023/03/21 03:38:34;;;;;;;25.40;13.50;;;;;;;3.41;63.82;100294.04;105355;1250;60441;-52
2023/03/21 03:41:17;;;;;;;22.70;13.40;;;;;;;3.36;63.78;100295.55;105337;1251;60405;-50
2023/03/21 03:43:54;;;;;;;27.20;14.30;;;;;;;3.34;63.90;100296.89;105135;1257;64935;-50
2023/03/21 03:46:33;;;;;;;23.70;13.20;;;;;;;3.32;63.92;100295.23;105313;1251;62472;-51
2023/03/21 03:49:14;;;;;;;26.10;13.30;;;;;;;3.26;63.92;100290.16;105239;1257;65001;-52
2023/03/21 03:51:47;;;;;;;27.60;15.00;;;;;;;3.21;64.08;100289.21;106075;1251;60584;-53
2023/03/21 03:54:38;;;;;;;24.80;11.40;;;;;;;3.17;64.25;100288.71;105874;1251;60499;-52
2023/03/21 03:57:07;;;;;;;19.70;9.40;;;;;;;3.19;64.15;100288.98;105752;1250;65980;-52
2023/03/21 03:59:36;;;;;;;26.00;11.40;;;;;;;3.23;63.84;100287.55;105992;1249;62634;-53
2023/03/21 04:02:13;;;;;;;24.20;10.00;;;;;;;3.25;63.84;100283.61;106019;1251;64569;-53
2023/03/21 04:04:43;;;;;;;22.10;10.10;;;;;;;3.28;63.99;100281.89;105672;1251;60536;-52
2023/03/21 04:07:11;;;;;;;23.80;9.50;;;;;;;3.32;64.13;100281.68;105595;1251;60540;-53
2023/03/21 04:09:41;;;;;;;34.10;13.50;;;;;;;3.35;64.09;100278.05;105916;1253;65992;-53
2023/03/21 04:12:14;;;;;;;26.00;11.60;;;;;;;3.37;64.13;100273.30;105477;1254;61300;-52
2023/03/21 04:14:53;;;;;;;26.30;11.50;;;;;;;3.40;64.23;100272.13;105512;1253;65256;-50
2023/03/21 04:17:33;;;;;;;25.40;9.00;;;;;;;3.42;64.12;100274.41;105476;1251;60630;-50
2023/03/21 04:20:05;;;;;;;26.60;11.80;;;;;;;3.42;63.99;100273.91;105322;1251;60520;-54
2023/03/21 04:22:43;;;;;;;24.80;11.90;;;;;;;3.38;63.78;100270.48;105442;1249;65143;-53
2023/03/21 04:25:12;;;;;;;29.20;14.80;;;;;;;3.32;63.66;100268.86;105145;1249;63356;-52
2023/03/21 04:27:55;;;;;;;26.20;14.10;;;;;;;3.26;63.66;100275.93;105782;1251;65148;-54
2023/03/21 04:30:40;;;;;;;26.60;13.40;;;;;;;3.18;63.74;100278.23;105264;1251;60559;-53
2023/03/21 04:33:18;;;;;;;27.50;12.90;;;;;;;3.11;63.88;100278.27;105317;1256;60351;-52
2023/03/21 04:35:55;;;;;;;24.90;13.10;;;;;;;3.07;64.01;100285.41;105283;1253;66015;-52
2023/03/21 04:38:29;;;;;;;30.50;15.30;;;;;;;3.03;64.15;100286.33;105321;1251;61587;-51
2023/03/21 04:41:01;;;;;;;26.60;14.50;;;;;;;2.99;64.31;100286.14;105179;1251;64992;-51
2023/03/21 04:43:31;;;;;;;30.10;15.20;;;;;;;2.96;64.50;100287.52;109360;1249;59740;-52
2023/03/21 04:45:59;;;;;;;21.10;12.60;;;;;;;2.95;64.53;100290.00;109102;1249;60134;-52
2023/03/21 04:48:28;;;;;;;20.50;9.50;;;;;;;3.03;64.69;100291.52;109237;1250;72779;-52
2023/03/21 04:50:56;;;;;;;24.60;8.50;;;;;;;3.16;64.90;100293.61;109162;1250;74298;-51
2023/03/21 04:53:24;;;;;;;24.30;9.90;;;;;;;3.31;65.23;100293.05;108109;1252;72710;-51
2023/03/21 04:55:53;;;;;;;43.50;30.90;;;;;;;3.45;65.40;100294.05;105756;1253;63509;-50
2023/03/21 04:58:22;;;;;;;26.30;11.80;;;;;;;3.59;65.48;100295.56;105565;1251;60507;-50
2023/03/21 05:00:51;;;;;;;20.30;9.70;;;;;;;3.70;65.59;100294.10;109190;1250;66493;-52
2023/03/21 05:03:21;;;;;;;27.00;13.40;;;;;;;3.78;65.64;100291.95;109294;1250;70824;-52
2023/03/21 05:05:50;;;;;;;45.40;30.60;;;;;;;3.84;65.59;100289.05;109288;1250;72495;-52
2023/03/21 05:08:19;;;;;;;24.90;12.80;;;;;;;3.90;65.62;100295.17;109281;1253;58856;-52
2023/03/21 05:10:51;;;;;;;32.80;14.30;;;;;;;3.96;65.60;100298.81;109090;1250;310066;-51
2023/03/21 05:15:56;;;;;;;22.50;12.70;;;;;;;3.93;65.89;100298.11;102314;1295;601266;-50
2023/03/21 05:18:25;;;;;;;41.50;31.80;;;;;;;4.14;65.30;100299.05;104410;1267;59286;-51
2023/03/21 05:21:09;;;;;;;25.10;12.00;;;;;;;4.19;65.08;100296.69;108305;1266;57163;-51
2023/03/21 05:23:38;;;;;;;19.90;9.10;;;;;;;4.28;65.08;100294.98;105932;1270;63266;-51
2023/03/21 05:26:07;;;;;;;42.40;29.10;;;;;;;4.40;64.95;100294.50;104179;1273;62699;-52
2023/03/21 05:28:56;;;;;;;21.40;9.10;;;;;;;4.55;65.15;100295.44;104060;1270;187436;-52
2023/03/21 05:31:25;;;;;;;41.60;30.60;;;;;;;4.69;65.22;100299.81;104484;1264;59368;-52
2023/03/21 05:34:04;;;;;;;22.20;13.50;;;;;;;4.82;65.30;100299.98;104255;1264;60018;-51
2023/03/21 05:36:38;;;;;;;47.40;33.20;;;;;;;4.91;65.26;100300.30;104427;1264;64481;-54
2023/03/21 05:39:08;;;;;;;25.90;15.30;;;;;;;4.98;65.20;100296.63;104417;1264;63438;-53
2023/03/21 05:41:41;;;;;;;31.30;14.40;;;;;;;5.05;65.26;100295.52;104130;1267;65328;-53
2023/03/21 05:44:09;;;;;;;26.70;15.50;;;;;;;5.12;65.23;100297.90;104304;1264;59704;-52
2023/03/21 05:46:39;;;;;;;48.40;34.50;;;;;;;5.16;65.20;100299.89;104528;1269;59733;-52
2023/03/21 05:49:11;;;;;;;50.30;34.80;;;;;;;5.21;65.27;100303.45;104330;1270;65497;-51
2023/03/21 05:51:41;;;;;;;27.10;12.10;;;;;;;5.34;65.26;100302.17;104282;1269;61648;-53
2023/03/21 05:54:15;;;;;;;23.70;11.10;;;;;;;5.49;65.10;100299.73;104923;1267;64825;-52
2023/03/21 05:56:48;;;;;;;45.00;32.90;;;;;;;5.60;65.04;100301.83;104657;1264;59721;-53
2023/03/21 05:59:25;;;;;;;24.40;11.50;;;;;;;5.71;65.01;100301.17;104682;1261;59640;-53
2023/03/21 06:01:55;;;;;;;31.20;16.40;;;;;;;5.80;64.90;100302.55;104603;1264;65481;-53
2023/03/21 06:04:24;;;;;;;49.70;35.80;;;;;;;5.86;64.85;100301.80;104861;1261;62674;-53
2023/03/21 06:06:53;;;;;;;53.60;37.80;;;;;;;5.91;64.86;100309.34;104884;1260;64105;-53
2023/03/21 06:09:26;;;;;;;32.00;16.70;;;;;;;5.97;64.87;100307.43;105410;1257;59758;-53
2023/03/21 06:11:59;;;;;;;58.90;39.10;;;;;;;6.02;64.87;100301.73;105031;1258;59669;-51
2023/03/21 06:14:27;;;;;;;55.20;40.00;;;;;;;6.07;64.78;100299.65;105021;1258;65658;-52
2023/03/21 06:17:15;;;;;;;28.30;15.80;;;;;;;6.14;64.75;100298.40;105706;1256;62714;-51
2023/03/21 06:19:48;;;;;;;29.30;13.20;;;;;;;6.26;64.67;100300.06;105559;1257;65035;-53
2023/03/21 06:22:30;;;;;;;54.80;38.70;;;;;;;6.40;64.40;100294.78;104923;1254;59659;-53
2023/03/21 06:25:00;;;;;;;54.80;37.60;;;;;;;6.57;64.36;100298.98;104953;1257;60467;-53
2023/03/21 06:27:31;;;;;;;61.70;40.90;;;;;;;6.69;64.28;100294.14;105180;1257;66979;-51
2023/03/21 06:30:07;;;;;;;35.40;17.20;;;;;;;6.79;64.14;100296.11;104634;1257;62814;-50
2023/03/21 06:32:43;;;;;;;30.60;17.10;;;;;;;6.90;64.02;100296.45;105247;1258;64963;-50
2023/03/21 06:35:14;;;;;;;50.70;36.50;;;;;;;6.99;63.77;100292.20;105830;1260;59640;-49
2023/03/21 06:37:44;;;;;;;48.40;35.60;;;;;;;7.06;63.63;100288.06;104562;1263;59275;-51
2023/03/21 06:40:13;;;;;;;50.60;37.50;;;;;;;7.15;63.57;100286.48;104399;1263;73324;-51
2023/03/21 06:42:42;;;;;;;50.40;34.70;;;;;;;7.20;63.52;100285.01;108776;1257;62916;-50
2023/03/21 06:45:11;;;;;;;47.90;31.80;;;;;;;7.33;63.32;100284.16;108707;1257;65019;-50
2023/03/21 06:47:40;;;;;;;49.00;32.30;;;;;;;7.51;63.11;100283.84;108762;1256;59221;-50
2023/03/21 06:50:18;;;;;;;47.50;35.00;;;;;;;7.69;62.81;100278.95;108828;1256;58145;-51
2023/03/21 06:52:47;;;;;;;47.80;34.60;;;;;;;7.85;62.53;100276.58;108878;1256;64182;-53
2023/03/21 06:55:18;;;;;;;51.50;36.10;;;;;;;7.96;62.11;100279.95;108743;1257;70932;-52
2023/03/21 06:57:46;;;;;;;44.20;34.30;;;;;;;8.05;61.86;100282.33;105024;1257;65292;-51
2023/03/21 07:00:16;;;;;;;49.00;35.30;;;;;;;8.13;61.66;100282.61;105157;1257;59790;-49
2023/03/21 07:02:55;;;;;;;54.40;36.30;;;;;;;8.21;61.57;100285.59;104858;1256;59759;-52
2023/03/21 07:05:26;;;;;;;47.40;38.00;;;;;;;8.25;61.44;100284.20;104896;1257;64094;-51
2023/03/21 07:07:54;;;;;;;50.80;36.50;;;;;;;8.32;61.32;100288.45;105048;1257;71040;-53
2023/03/21 07:10:24;;;;;;;46.00;34.00;;;;;;;8.37;61.30;100287.02;105230;1257;65268;-52
2023/03/21 07:12:58;;;;;;;47.70;32.00;;;;;;;8.51;60.92;100284.19;104791;1260;60865;-53
2023/03/21 07:15:39;;;;;;;45.70;29.60;;;;;;;8.64;60.79;100280.58;104856;1258;59743;-51
2023/03/21 07:18:08;;;;;;;45.20;32.20;;;;;;;8.78;60.59;100281.11;104808;1260;65239;-53
2023/03/21 07:20:39;;;;;;;46.80;32.40;;;;;;;8.90;60.31;100280.41;104679;1257;62676;-51
2023/03/21 07:23:07;;;;;;;45.60;33.10;;;;;;;8.99;60.06;100280.09;105647;1260;65017;-51
2023/03/21 07:25:36;;;;;;;42.90;31.50;;;;;;;9.09;59.76;100279.64;105604;1258;59983;-48
2023/03/21 07:28:07;;;;;;;46.50;33.60;;;;;;;9.18;59.41;100275.89;104870;1256;60151;-49
2023/03/21 07:30:36;;;;;;;50.90;34.70;;;;;;;9.25;59.27;100273.61;108132;1257;65440;-49
2023/03/21 07:33:06;;;;;;;48.20;33.90;;;;;;;9.33;59.15;100267.73;104758;1257;65119;-49
2023/03/21 07:35:36;;;;;;;44.60;33.10;;;;;;;9.40;59.00;100266.96;104864;1260;65123;-49
2023/03/21 07:38:07;;;;;;;47.80;35.80;;;;;;;9.48;58.76;100266.73;104971;1263;59531;-49
2023/03/21 07:40:38;;;;;;;42.80;31.20;;;;;;;9.55;58.54;100264.14;104566;1258;59568;-48
2023/03/21 07:43:09;;;;;;;42.60;29.70;;;;;;;9.65;58.33;100264.18;104978;1257;65386;-49
2023/03/21 07:45:41;;;;;;;50.70;34.30;;;;;;;9.80;58.01;100262.00;104840;1258;61513;-51
2023/03/21 07:48:11;;;;;;;47.50;34.10;;;;;;;9.94;58.09;100257.17;104994;1257;65086;-54
2023/03/21 07:50:40;;;;;;;47.10;33.90;;;;;;;10.08;57.97;100254.70;104829;1260;59766;-56
2023/03/21 07:53:09;;;;;;;47.60;32.90;;;;;;;10.20;57.83;100251.42;105153;1257;59765;-54
2023/03/21 07:55:39;;;;;;;46.00;34.40;;;;;;;10.32;57.56;100250.33;105309;1260;65634;-55
2023/03/21 07:58:08;;;;;;;46.30;33.10;;;;;;;10.43;57.10;100255.77;105178;1257;62335;-54
2023/03/21 08:00:37;;;;;;;41.80;32.20;;;;;;;10.51;56.68;100258.08;105183;1257;64010;-54
2023/03/21 08:03:05;;;;;;;46.50;33.70;;;;;;;10.56;56.37;100253.26;104952;1260;59753;-53
2023/03/21 08:05:39;;;;;;;43.90;30.80;;;;;;;10.64;56.22;100249.71;105077;1257;59704;-54
2023/03/21 08:08:09;;;;;;;46.10;33.80;;;;;;;10.71;56.04;100250.30;105059;1264;65182;-53
2023/03/21 08:10:37;;;;;;;41.00;30.20;;;;;;;10.80;55.93;100252.75;105263;1260;61317;-52
2023/03/21 08:13:07;;;;;;;38.20;29.90;;;;;;;10.96;55.58;100248.64;104988;1260;64929;-53
2023/03/21 08:15:40;;;;;;;44.70;31.00;;;;;;;11.13;55.25;100249.09;104969;1258;59621;-54
2023/03/21 08:18:10;;;;;;;41.70;32.60;;;;;;;11.30;54.95;100248.95;105106;1257;60475;-53
2023/03/21 08:20:40;;;;;;;39.40;30.80;;;;;;;11.42;54.73;100246.63;104937;1260;65279;-54
2023/03/21 08:23:09;;;;;;;39.20;30.00;;;;;;;11.55;54.63;100241.35;105821;1257;62579;-54
2023/03/21 08:25:38;;;;;;;41.00;30.20;;;;;;;11.66;54.25;100239.31;105142;1260;63669;-53
2023/03/21 08:28:06;;;;;;;40.70;30.20;;;;;;;11.78;53.96;100237.45;104897;1260;59604;-53
2023/03/21 08:30:35;;;;;;;41.50;29.80;;;;;;;11.88;53.70;100234.80;105005;1257;59635;-51
2023/03/21 08:33:03;;;;;;;37.90;30.00;;;;;;;11.98;53.43;100234.25;104871;1257;65686;-52
2023/03/21 08:35:33;;;;;;;39.80;28.90;;;;;;;12.09;53.23;100234.33;105355;1257;62445;-52
2023/03/21 08:38:02;;;;;;;38.20;27.90;;;;;;;12.21;53.18;100235.07;105047;1257;64730;-52
2023/03/21 08:40:31;;;;;;;39.50;29.90;;;;;;;12.33;52.76;100236.11;105335;1256;59675;-52
2023/03/21 08:42:59;;;;;;;39.70;28.90;;;;;;;12.42;52.51;100230.89;105180;1260;59591;-51
2023/03/21 08:45:29;;;;;;;36.00;27.90;;;;;;;12.51;52.15;100230.50;105043;1257;65448;-53
2023/03/21 08:48:01;;;;;;;42.20;31.80;;;;;;;12.59;52.13;100232.00;104902;1257;62357;-53
2023/03/21 08:50:30;;;;;;;45.30;32.80;;;;;;;12.66;51.53;100230.36;105347;1256;64900;-54
2023/03/21 08:52:59;;;;;;;39.90;31.70;;;;;;;12.63;51.51;100224.75;105271;1257;59803;-53
2023/03/21 08:55:27;;;;;;;40.40;31.20;;;;;;;12.62;51.73;100225.72;105126;1256;59688;-51
2023/03/21 08:57:57;;;;;;;48.90;32.80;;;;;;;12.62;51.55;100227.48;105002;1260;65612;-56
2023/03/21 09:00:26;;;;;;;48.00;35.60;;;;;;;12.63;51.40;100224.41;105115;1258;62631;-54
2023/03/21 09:02:54;;;;;;;43.40;30.00;;;;;;;12.62;51.38;100225.70;105256;1259;65225;-56
2023/03/21 09:05:24;;;;;;;44.50;31.80;;;;;;;12.63;51.53;100227.98;104870;1263;59693;-53
2023/03/21 09:07:53;;;;;;;44.00;34.60;;;;;;;12.65;51.32;100230.41;106106;1258;59567;-53
2023/03/21 09:10:22;;;;;;;42.80;33.00;;;;;;;12.66;51.16;100232.95;105091;1260;65698;-53
2023/03/21 09:12:54;;;;;;;46.20;32.60;;;;;;;12.69;51.12;100233.27;105217;1258;62447;-53
2023/03/21 09:15:27;;;;;;;41.40;30.20;;;;;;;12.72;51.04;100230.16;105234;1257;73826;-53
2023/03/21 09:17:57;;;;;;;37.50;27.00;;;;;;;12.77;50.98;100231.40;107622;1256;59672;-52
2023/03/21 09:20:31;;;;;;;29.20;23.60;;;;;;;12.88;50.88;100229.38;105231;1257;59672;-53
2023/03/21 09:23:00;;;;;;;37.90;25.30;;;;;;;13.03;50.70;100230.77;105391;1260;65827;-51
2023/03/21 09:25:29;;;;;;;35.10;24.30;;;;;;;13.22;50.18;100230.81;105972;1260;61436;-51
2023/03/21 09:28:04;;;;;;;32.60;25.40;;;;;;;13.40;49.97;100231.24;105401;1257;64883;-52
2023/03/21 09:30:33;;;;;;;33.70;25.70;;;;;;;13.56;49.71;100230.11;105956;1258;60507;-51
2023/03/21 09:33:07;;;;;;;36.40;24.80;;;;;;;13.72;49.49;100229.64;105263;1257;60501;-52
2023/03/21 09:35:36;;;;;;;32.70;24.00;;;;;;;13.89;49.13;100225.91;107549;1256;66015;-53
2023/03/21 09:38:05;;;;;;;33.10;25.40;;;;;;;14.04;48.34;100226.27;105238;1259;62919;-51
2023/03/21 09:40:58;;;;;;;32.00;23.40;;;;;;;14.17;47.99;100224.98;105455;1257;65061;-51
2023/03/21 09:43:38;;;;;;;30.50;23.50;;;;;;;14.31;47.62;100223.40;105428;1254;60467;-53
2023/03/21 09:46:11;;;;;;;34.00;23.60;;;;;;;14.43;46.94;100217.98;105443;1254;60559;-51
2023/03/21 09:48:45;;;;;;;39.90;22.70;;;;;;;14.54;46.60;100215.72;106309;1256;67671;-52
2023/03/21 09:51:35;;;;;;;33.20;24.30;;;;;;;14.66;46.72;100212.60;105213;1256;62374;-52
2023/03/21 09:54:07;;;;;;;31.60;23.90;;;;;;;14.79;46.93;100209.33;105930;1253;64060;-51
2023/03/21 09:56:35;;;;;;;27.20;22.00;;;;;;;14.93;46.55;100208.75;105454;1259;60547;-51
2023/03/21 09:59:06;;;;;;;28.70;21.90;;;;;;;15.05;45.72;100211.82;105301;1257;60417;-53
2023/03/21 10:01:40;;;;;;;28.00;21.40;;;;;;;15.14;44.80;100212.37;105575;1253;66243;-53
2023/03/21 10:04:14;;;;;;;27.40;21.80;;;;;;;15.21;44.77;100213.87;109207;1253;62423;-53
2023/03/21 10:06:44;;;;;;;30.60;22.60;;;;;;;15.31;44.52;100213.66;108966;1256;63937;-53
2023/03/21 10:09:31;;;;;;;29.10;23.00;;;;;;;15.42;44.60;100212.10;107591;1256;60565;-53
2023/03/21 10:12:13;;;;;;;31.90;22.40;;;;;;;15.58;44.64;100205.75;106041;1254;60790;-52
2023/03/21 10:14:43;;;;;;;30.50;21.90;;;;;;;15.73;44.63;100205.00;107009;1258;66190;-51
2023/03/21 10:17:21;;;;;;;29.60;22.20;;;;;;;15.86;44.19;100206.19;109024;1253;62858;-52
2023/03/21 10:20:10;;;;;;;25.80;19.60;;;;;;;15.96;43.81;100203.92;105440;1256;64910;-51
2023/03/21 10:22:43;;;;;;;24.80;19.20;;;;;;;16.06;41.85;100207.79;105694;1257;60462;-52
2023/03/21 10:25:32;;;;;;;21.80;18.20;;;;;;;16.10;41.01;100203.82;105630;1254;60451;-52
2023/03/21 10:28:02;;;;;;;25.00;19.90;;;;;;;16.15;40.92;100201.48;105628;1254;66509;-52
2023/03/21 10:30:51;;;;;;;28.50;20.20;;;;;;;16.21;40.91;100197.70;105531;1256;61447;-52
2023/03/21 10:33:41;;;;;;;24.70;20.20;;;;;;;16.23;40.90;100189.55;105814;1253;64810;-52
2023/03/21 10:36:30;;;;;;;26.30;19.80;;;;;;;16.27;40.98;100189.84;105604;1253;60690;-53
2023/03/21 10:39:06;;;;;;;26.50;19.90;;;;;;;16.33;40.31;100189.55;105322;1254;60441;-52
2023/03/21 10:41:34;;;;;;;28.30;21.50;;;;;;;16.34;40.19;100181.41;105680;1253;64744;-52
2023/03/21 10:44:15;;;;;;;26.90;19.10;;;;;;;16.39;40.73;100178.30;105448;1254;62660;-52
2023/03/21 10:46:54;;;;;;;28.50;21.60;;;;;;;16.50;41.01;100175.47;105575;1253;63964;-52
2023/03/21 10:49:25;;;;;;;27.40;21.00;;;;;;;16.63;41.09;100171.27;105680;1254;60730;-50
2023/03/21 10:51:56;;;;;;;31.10;22.00;;;;;;;16.72;40.20;100172.20;105582;1256;60453;-53
2023/03/21 10:54:27;;;;;;;28.10;22.60;;;;;;;16.75;39.80;100172.46;105569;1259;68146;-52
2023/03/21 10:56:56;;;;;;;26.30;21.00;;;;;;;16.71;39.66;100170.84;105652;1256;63065;-52
2023/03/21 10:59:26;;;;;;;25.30;20.20;;;;;;;16.73;39.76;100172.46;105400;1254;63740;-52
2023/03/21 11:01:55;;;;;;;31.00;22.50;;;;;;;16.78;39.73;100171.96;105488;1254;60482;-51
2023/03/21 11:04:26;;;;;;;31.00;22.10;;;;;;;16.81;39.87;100170.16;109135;1253;58172;-54
2023/03/21 11:07:00;;;;;;;27.90;22.20;;;;;;;16.83;39.99;100170.69;109184;1253;75441;-52
2023/03/21 11:09:49;;;;;;;25.50;21.10;;;;;;;16.87;39.86;100168.77;106365;1257;61639;-53
2023/03/21 11:12:39;;;;;;;26.40;21.80;;;;;;;16.96;39.85;100162.73;106261;1253;64961;-51
2023/03/21 11:15:32;;;;;;;25.00;20.60;;;;;;;17.10;39.85;100164.39;105701;1256;60655;-52
2023/03/21 11:18:16;;;;;;;25.30;20.30;;;;;;;17.24;39.69;100160.32;106740;1254;59553;-51
2023/03/21 11:20:50;;;;;;;24.50;20.10;;;;;;;17.36;39.30;100164.27;106350;1257;65551;-53
2023/03/21 11:23:19;;;;;;;27.00;21.80;;;;;;;17.46;39.01;100163.35;106022;1254;61825;-52
2023/03/21 11:25:49;;;;;;;28.50;22.50;;;;;;;17.51;38.56;100166.20;105308;1252;63793;-54
2023/03/21 11:28:21;;;;;;;26.30;20.90;;;;;;;17.46;38.31;100171.10;105296;1256;60543;-53
2023/03/21 11:30:56;;;;;;;26.40;21.40;;;;;;;17.36;38.78;100164.13;105227;1257;61722;-54
2023/03/21 11:33:52;;;;;;;25.50;20.60;;;;;;;17.34;39.21;100163.64;105271;1254;66650;-53
2023/03/21 11:36:21;;;;;;;29.90;22.60;;;;;;;17.45;39.29;100165.42;104985;1254;61816;-51
2023/03/21 11:38:52;;;;;;;27.60;20.70;;;;;;;17.56;39.30;100163.83;109104;1254;64925;-53
2023/03/21 11:41:31;;;;;;;28.30;22.80;;;;;;;17.66;39.11;100162.92;106647;1253;60434;-54
2023/03/21 11:44:28;;;;;;;29.90;21.70;;;;;;;17.74;38.72;100163.98;108866;1252;58287;-52